createdAt,value
2022-08-20T00:00:40.959Z,19.3
2022-08-20T00:02:45.066Z,19.3
2022-08-20T00:04:49.168Z,19.3
2022-08-20T00:06:53.280Z,19.3
2022-08-20T00:08:57.426Z,19.3
2022-08-20T00:11:01.496Z,19.2
2022-08-20T00:13:09.039Z,19.3
2022-08-20T00:15:12.730Z,19.2
2022-08-20T00:17:16.855Z,19.2
2022-08-20T00:19:20.955Z,19.2
2022-08-20T00:21:25.066Z,19.2
2022-08-20T00:23:29.191Z,19.2
2022-08-20T00:25:33.299Z,19.2
2022-08-20T00:27:40.441Z,19.1
2022-08-20T00:29:44.522Z,19.1
2022-08-20T00:31:48.641Z,19.1
2022-08-20T00:33:52.755Z,19.2
2022-08-20T00:35:56.851Z,19.1
2022-08-20T00:38:01.086Z,19.1
2022-08-20T00:40:05.186Z,19
2022-08-20T00:44:16.331Z,19.1
2022-08-20T00:50:48.921Z,19.1
2022-08-20T00:52:53.023Z,19.2
2022-08-20T00:59:08.521Z,19.1
2022-08-20T01:01:12.507Z,19.2
2022-08-20T01:03:16.614Z,19.1
2022-08-20T01:05:20.691Z,19.1
2022-08-20T01:07:24.859Z,19.1
2022-08-20T01:09:58.135Z,19.1
2022-08-20T01:13:40.189Z,19
2022-08-20T01:15:44.289Z,19
2022-08-20T01:17:48.403Z,19.1
2022-08-20T01:19:52.528Z,19.1
2022-08-20T01:21:56.630Z,19
2022-08-20T01:24:03.758Z,19.1
2022-08-20T01:28:11.963Z,19
2022-08-20T01:32:20.193Z,19
2022-08-20T01:36:28.396Z,19.1
2022-08-20T01:40:39.644Z,19.1
2022-08-20T01:45:51.446Z,19
2022-08-20T01:47:55.678Z,19
2022-08-20T01:49:59.686Z,18.9
2022-08-20T01:52:06.796Z,18.9
2022-08-20T01:54:11.372Z,18.9
2022-08-20T01:58:19.105Z,18.8
2022-08-20T02:00:23.200Z,18.8
2022-08-20T02:02:27.312Z,18.8
2022-08-20T02:04:31.447Z,18.8
2022-08-20T02:06:38.556Z,18.8
2022-08-20T02:08:42.674Z,18.7
2022-08-20T02:10:46.828Z,18.7
2022-08-20T02:12:50.866Z,18.7
2022-08-20T02:14:54.989Z,18.7
2022-08-20T02:16:59.083Z,18.7
2022-08-20T02:19:03.202Z,18.7
2022-08-20T02:21:10.333Z,18.7
2022-08-20T02:23:14.428Z,18.7
2022-08-20T02:25:18.531Z,18.7
2022-08-20T02:27:22.648Z,18.7
2022-08-20T02:29:26.765Z,18.7
2022-08-20T02:31:34.822Z,18.7
2022-08-20T02:33:34.972Z,18.7
2022-08-20T02:35:42.123Z,18.6
2022-08-20T02:37:46.222Z,18.7
2022-08-20T02:45:02.136Z,18.7
2022-08-20T02:57:29.796Z,18.6
2022-08-20T03:05:49.260Z,18.5
2022-08-20T03:14:05.711Z,18.3
2022-08-20T03:18:16.972Z,18.2
2022-08-20T03:20:23.801Z,18.2
2022-08-20T03:22:25.167Z,18.2
2022-08-20T03:24:29.278Z,18.1
2022-08-20T03:26:33.390Z,18.1
2022-08-20T03:28:37.491Z,18.2
2022-08-20T03:32:48.764Z,18.1
2022-08-20T03:34:52.872Z,18.2
2022-08-20T03:36:57.014Z,18.3
2022-08-20T03:38:00.550Z,18.3
2022-08-20T03:40:04.702Z,18.3
2022-08-20T03:42:08.767Z,18.3
2022-08-20T03:44:12.878Z,18.4
2022-08-20T03:52:33.892Z,18.4
2022-08-20T04:00:53.409Z,18.5
2022-08-20T04:02:57.468Z,18.5
2022-08-20T04:05:01.567Z,18.4
2022-08-20T04:07:05.675Z,18.4
2022-08-20T04:11:13.901Z,18.4
2022-08-20T04:15:25.120Z,18.3
2022-08-20T04:17:29.233Z,18.3
2022-08-20T04:19:34.346Z,18.3
2022-08-20T04:29:56.914Z,18.1
2022-08-20T04:34:05.119Z,18.1
2022-08-20T04:38:50.662Z,18.1
2022-08-20T04:42:45.124Z,18
2022-08-20T04:46:53.356Z,18.1
2022-08-20T04:59:21.029Z,18
2022-08-20T05:05:36.407Z,18
2022-08-20T05:07:37.465Z,18
2022-08-20T05:11:48.703Z,18
2022-08-20T05:13:52.803Z,18
2022-08-20T05:15:56.915Z,18.1
2022-08-20T05:18:01.010Z,18.1
2022-08-20T05:20:05.129Z,18
2022-08-20T05:24:13.346Z,18.2
2022-08-20T05:28:24.578Z,18.2
2022-08-20T05:30:28.690Z,18.1
2022-08-20T05:31:33.368Z,18.1
2022-08-20T05:33:36.383Z,18.1
2022-08-20T05:35:40.468Z,18.2
2022-08-20T05:37:44.579Z,18.1
2022-08-20T05:39:51.734Z,18.2
2022-08-20T05:41:55.795Z,18.2
2022-08-20T05:43:59.906Z,18.3
2022-08-20T05:46:04.032Z,18.3
2022-08-20T05:48:08.170Z,18.3
2022-08-20T05:50:12.230Z,18.2
2022-08-20T05:52:16.345Z,18.2
2022-08-20T05:54:23.478Z,18.1
2022-08-20T05:56:27.565Z,18.1
2022-08-20T05:58:31.676Z,18.2
2022-08-20T06:00:35.799Z,18.1
2022-08-20T06:04:44.000Z,18.1
2022-08-20T06:06:48.122Z,18.2
2022-08-20T06:10:59.341Z,18.2
2022-08-20T06:13:03.442Z,18.2
2022-08-20T06:15:07.537Z,18.2
2022-08-20T06:19:15.766Z,18.3
2022-08-20T06:21:19.871Z,18.3
2022-08-20T06:23:26.982Z,18.2
2022-08-20T06:25:34.893Z,18.3
2022-08-20T06:27:35.190Z,18.4
2022-08-20T06:30:42.843Z,18.5
2022-08-20T06:39:02.298Z,18.7
2022-08-20T06:41:06.424Z,18.9
2022-08-20T06:43:10.504Z,18.8
2022-08-20T06:45:14.616Z,18.8
2022-08-20T06:47:18.886Z,18.8
2022-08-20T06:49:22.811Z,18.8
2022-08-20T06:51:29.944Z,18.9
2022-08-20T06:53:34.059Z,18.9
2022-08-20T06:55:38.170Z,18.9
2022-08-20T06:57:42.301Z,18.9
2022-08-20T06:59:48.015Z,19
2022-08-20T07:01:50.463Z,19.1
2022-08-20T07:03:56.151Z,19.1
2022-08-20T07:06:01.779Z,19.4
2022-08-20T07:08:05.826Z,19.6
2022-08-20T07:10:09.917Z,20.7
2022-08-20T07:12:16.210Z,21.6
2022-08-20T07:14:18.141Z,20.8
2022-08-20T07:16:23.317Z,20.2
2022-08-20T07:20:33.481Z,22.9
2022-08-20T07:22:37.576Z,23.3
2022-08-20T07:24:43.242Z,23
2022-08-20T07:25:45.252Z,24.2
2022-08-20T07:27:49.349Z,24.8
2022-08-20T07:29:53.446Z,24.9
2022-08-20T07:31:57.581Z,24.9
2022-08-20T07:38:12.911Z,26.9
2022-08-20T07:40:17.103Z,26.5
2022-08-20T07:42:21.141Z,26.6
2022-08-20T07:48:36.471Z,27
2022-08-20T07:50:40.574Z,27.2
2022-08-20T07:52:44.717Z,26.7
2022-08-20T07:54:48.796Z,27.1
2022-08-20T07:56:52.900Z,27.2
2022-08-20T08:01:01.189Z,27.7
2022-08-20T08:03:08.223Z,28.9
2022-08-20T08:05:12.324Z,28.7
2022-08-20T08:07:16.442Z,29
2022-08-20T08:09:20.532Z,28.7
2022-08-20T08:11:24.619Z,28.7
2022-08-20T08:13:28.713Z,28.8
2022-08-20T08:15:32.803Z,28.6
2022-08-20T08:17:39.927Z,27.6
2022-08-20T08:19:44.031Z,27.5
2022-08-20T08:21:48.103Z,28.2
2022-08-20T08:24:06.844Z,28.5
2022-08-20T08:26:15.954Z,28.6
2022-08-20T08:28:14.984Z,28.3
2022-08-20T08:30:22.150Z,29.7
2022-08-20T08:32:26.204Z,29
2022-08-20T08:34:30.287Z,28.8
2022-08-20T08:38:38.444Z,27.4
2022-08-20T08:40:42.532Z,27.6
2022-08-20T08:42:46.605Z,27.9
2022-08-20T08:44:53.728Z,27
2022-08-20T08:46:57.802Z,26.9
2022-08-20T08:51:05.968Z,25.9
2022-08-20T08:53:10.058Z,25.5
2022-08-20T08:55:14.109Z,25.5
2022-08-20T08:57:18.188Z,25.7
2022-08-20T08:59:25.301Z,24.7
2022-08-20T09:01:54.243Z,24.5
2022-08-20T09:03:33.441Z,23.9
2022-08-20T09:05:37.502Z,23.7
2022-08-20T09:07:41.578Z,23.8
2022-08-20T09:09:45.641Z,23.7
2022-08-20T09:11:49.724Z,23.7
2022-08-20T09:13:56.830Z,24.2
2022-08-20T09:16:00.918Z,24
2022-08-20T09:18:04.969Z,24
2022-08-20T09:19:08.526Z,23.7
2022-08-20T09:21:12.585Z,23.6
2022-08-20T09:23:16.635Z,23.9
2022-08-20T09:25:20.724Z,23.9
2022-08-20T09:27:27.839Z,24
2022-08-20T09:29:31.875Z,23.9
2022-08-20T09:31:35.938Z,24.3
2022-08-20T09:33:40.020Z,24.7
2022-08-20T09:35:44.088Z,25
2022-08-20T09:37:51.032Z,25.2
2022-08-20T09:39:52.292Z,25
2022-08-20T09:44:04.897Z,25.3
2022-08-20T09:46:08.994Z,24.6
2022-08-20T09:48:13.018Z,25.2
2022-08-20T09:50:17.075Z,25.1
2022-08-20T09:54:25.176Z,24
2022-08-20T09:58:36.346Z,23.3
2022-08-20T10:00:40.384Z,23
2022-08-20T10:02:44.476Z,22.8
2022-08-20T10:04:48.488Z,22.7
2022-08-20T10:06:52.582Z,22.7
2022-08-20T10:08:56.621Z,22.4
2022-08-20T10:11:03.752Z,22.4
2022-08-20T10:13:07.812Z,22.5
2022-08-20T10:15:11.890Z,23.2
2022-08-20T10:16:15.443Z,24.2
2022-08-20T10:18:19.512Z,24.2
2022-08-20T10:20:23.568Z,24.3
2022-08-20T10:22:27.653Z,24.7
2022-08-20T10:24:34.759Z,25.2
2022-08-20T10:26:38.962Z,25.3
2022-08-20T10:28:42.898Z,25.7
2022-08-20T10:30:46.984Z,25.8
2022-08-20T10:32:51.034Z,25.5
2022-08-20T10:34:55.117Z,24.2
2022-08-20T10:36:59.220Z,23.7
2022-08-20T10:39:06.295Z,23.4
2022-08-20T10:41:10.341Z,23.4
2022-08-20T10:43:14.426Z,23.6
2022-08-20T10:45:18.487Z,23.7
2022-08-20T10:47:22.595Z,23.7
2022-08-20T10:49:26.638Z,24.6
2022-08-20T10:53:37.849Z,25.2
2022-08-20T10:55:41.904Z,25.5
2022-08-20T10:57:45.981Z,25.4
2022-08-20T10:59:50.051Z,25.1
2022-08-20T11:01:54.133Z,24.8
2022-08-20T11:03:58.193Z,24.5
2022-08-20T11:06:02.246Z,24.1
2022-08-20T11:10:14.049Z,23.5
2022-08-20T11:12:17.499Z,24.1
2022-08-20T11:15:25.123Z,25.7
2022-08-20T11:17:29.185Z,25.6
2022-08-20T11:19:33.258Z,24.5
2022-08-20T11:23:44.444Z,23.9
2022-08-20T11:25:48.502Z,23.9
2022-08-20T11:27:52.617Z,23.7
2022-08-20T11:29:56.652Z,23.6
2022-08-20T11:32:00.736Z,24.8
2022-08-20T11:34:07.386Z,25.8
2022-08-20T11:36:11.954Z,26.3
2022-08-20T11:38:15.973Z,25.5
2022-08-20T11:40:20.127Z,24.4
2022-08-20T11:42:24.112Z,23.5
2022-08-20T11:44:28.204Z,23.4
2022-08-20T11:46:32.277Z,23.5
2022-08-20T11:48:36.383Z,23.6
2022-08-20T11:50:43.451Z,24.8
2022-08-20T11:52:47.518Z,24.6
2022-08-20T11:54:54.739Z,24.2
2022-08-20T11:56:55.677Z,24.1
2022-08-20T11:58:59.764Z,23.8
2022-08-20T12:01:03.847Z,23.9
2022-08-20T12:03:09.150Z,24.1
2022-08-20T12:05:15.046Z,25.4
2022-08-20T12:07:19.113Z,25.7
2022-08-20T12:09:24.906Z,26.1
2022-08-20T12:11:52.996Z,26.4
2022-08-20T12:18:08.235Z,27.1
2022-08-20T12:20:12.308Z,27.2
2022-08-20T12:22:23.113Z,26.9
2022-08-20T12:24:20.420Z,27.1
2022-08-20T12:26:24.473Z,26.8
2022-08-20T12:28:28.528Z,26.7
2022-08-20T12:30:32.573Z,25.6
2022-08-20T12:40:55.871Z,25.4
2022-08-20T12:42:59.922Z,26
2022-08-20T12:45:03.956Z,26.3
2022-08-20T12:47:11.086Z,25.8
2022-08-20T12:49:15.114Z,25.7
2022-08-20T12:51:19.152Z,25.8
2022-08-20T12:53:23.216Z,26
2022-08-20T12:59:35.399Z,25.1
2022-08-20T13:01:42.625Z,25.1
2022-08-20T13:03:46.558Z,25.5
2022-08-20T13:05:50.627Z,25.7
2022-08-20T13:06:54.138Z,26.2
2022-08-20T13:11:02.269Z,26.2
2022-08-20T13:13:06.329Z,26.7
2022-08-20T13:15:13.423Z,26
2022-08-20T13:17:17.487Z,26
2022-08-20T13:19:21.536Z,26
2022-08-20T13:23:29.660Z,24.7
2022-08-20T13:25:33.717Z,24.9
2022-08-20T13:27:37.775Z,25.7
2022-08-20T13:29:44.869Z,26
2022-08-20T13:31:48.954Z,26.1
2022-08-20T13:33:53.011Z,26.4
2022-08-20T13:35:57.056Z,26.3
2022-08-20T13:38:01.125Z,26.5
2022-08-20T13:40:05.332Z,26.6
2022-08-20T13:42:09.253Z,26.4
2022-08-20T13:44:16.386Z,26.5
2022-08-20T13:46:20.392Z,26.4
2022-08-20T13:48:24.469Z,26.7
2022-08-20T13:50:28.508Z,26.3
2022-08-20T13:52:32.613Z,26.1
2022-08-20T13:54:36.629Z,25.8
2022-08-20T13:58:47.782Z,25.9
2022-08-20T14:00:51.822Z,26
2022-08-20T14:02:56.014Z,25.3
2022-08-20T14:06:03.497Z,24.8
2022-08-20T14:08:07.570Z,24.9
2022-08-20T14:10:11.611Z,24.9
2022-08-20T14:12:18.716Z,25.8
2022-08-20T14:14:22.793Z,26.1
2022-08-20T14:16:27.576Z,26.1
2022-08-20T14:20:34.967Z,25.3
2022-08-20T14:22:39.048Z,25
2022-08-20T14:24:43.103Z,25.2
2022-08-20T14:28:54.268Z,25.1
2022-08-20T14:30:58.334Z,25.1
2022-08-20T14:33:02.404Z,25.1
2022-08-20T14:35:06.454Z,24.9
2022-08-20T14:37:10.532Z,24.9
2022-08-20T14:39:19.861Z,25
2022-08-20T14:43:25.781Z,25
2022-08-20T14:45:29.825Z,25
2022-08-20T14:47:33.915Z,24.9
2022-08-20T14:51:42.057Z,24.9
2022-08-20T14:53:46.115Z,24.8
2022-08-20T14:55:53.233Z,24.7
2022-08-20T14:57:57.294Z,24.9
2022-08-20T15:00:01.373Z,25
2022-08-20T15:01:04.975Z,25.2
2022-08-20T15:03:09.000Z,25.2
2022-08-20T15:05:13.057Z,25.1
2022-08-20T15:07:17.150Z,25.4
2022-08-20T15:09:24.246Z,25.8
2022-08-20T15:11:32.406Z,26
2022-08-20T15:13:32.381Z,26.8
2022-08-20T15:15:36.428Z,27.1
2022-08-20T15:25:59.751Z,26.7
2022-08-20T15:30:07.772Z,27.4
2022-08-20T15:32:11.803Z,28
2022-08-20T15:34:17.539Z,27
2022-08-20T15:36:19.848Z,26.2
2022-08-20T15:38:26.922Z,26.6
2022-08-20T15:40:32.671Z,27
2022-08-20T15:42:36.468Z,26.6
2022-08-20T15:44:40.488Z,26.6
2022-08-20T15:46:44.490Z,27.9
2022-08-20T15:48:48.500Z,29.2
2022-08-20T15:50:52.521Z,28.6
2022-08-20T15:52:59.562Z,27.9
2022-08-20T15:55:03.569Z,28
2022-08-20T16:01:33.673Z,28.9
2022-08-20T16:05:44.593Z,26.7
2022-08-20T16:07:48.606Z,26
2022-08-20T16:09:52.614Z,25.2
2022-08-20T16:14:00.654Z,24.6
2022-08-20T16:20:15.785Z,25.7
2022-08-20T16:22:19.860Z,25.8
2022-08-20T16:24:23.856Z,25.5
2022-08-20T16:28:31.969Z,24.7
2022-08-20T16:30:36.037Z,24.4
2022-08-20T16:32:40.084Z,24.3
2022-08-20T16:36:57.004Z,24
2022-08-20T16:43:03.444Z,24.5
2022-08-20T16:45:07.527Z,25
2022-08-20T16:47:13.959Z,24.7
2022-08-20T16:49:18.712Z,25.1
2022-08-20T16:51:22.798Z,25.3
2022-08-20T16:53:26.866Z,25.6
2022-08-20T16:54:31.022Z,25.7
2022-08-20T16:58:38.600Z,26.1
2022-08-20T17:00:45.164Z,25.2
2022-08-20T17:02:49.857Z,26
2022-08-20T17:04:59.941Z,25.6
2022-08-20T17:06:57.932Z,25.1
2022-08-20T17:09:02.005Z,25.3
2022-08-20T17:11:06.066Z,24.3
2022-08-20T17:13:10.145Z,23.6
2022-08-20T17:15:14.205Z,24.4
2022-08-20T17:17:21.325Z,25.9
2022-08-20T17:19:25.413Z,25.7
2022-08-20T17:21:29.484Z,25.8
2022-08-20T17:23:49.140Z,25.7
2022-08-20T17:25:37.652Z,25.6
2022-08-20T17:27:41.703Z,25.8
2022-08-20T17:29:45.765Z,25.8
2022-08-20T17:31:52.866Z,25.3
2022-08-20T17:33:56.927Z,25.1
2022-08-20T17:36:00.983Z,25
2022-08-20T17:38:05.112Z,24.9
2022-08-20T17:48:28.411Z,24.9
2022-08-20T17:50:32.462Z,24.6
2022-08-20T17:51:35.992Z,23.8
2022-08-20T17:53:40.075Z,23.2
2022-08-20T17:55:44.141Z,22.8
2022-08-20T18:08:11.667Z,22
2022-08-20T18:10:15.777Z,21.9
2022-08-20T18:12:33.428Z,21.8
2022-08-20T18:14:27.001Z,21.7
2022-08-20T18:18:35.245Z,21.6
2022-08-20T18:26:51.691Z,21.3
2022-08-20T18:31:02.870Z,21.2
2022-08-20T18:35:11.104Z,21.1
2022-08-20T18:37:15.227Z,21
2022-08-20T18:43:30.733Z,20.8
2022-08-20T18:45:34.735Z,20.7
2022-08-20T18:47:38.850Z,20.7
2022-08-20T18:48:42.418Z,20.7
2022-08-20T18:50:46.545Z,20.6
2022-08-20T18:52:50.715Z,20.6
2022-08-20T18:54:54.788Z,20.5
2022-08-20T18:57:01.952Z,20.5
2022-08-20T19:01:10.173Z,20.4
2022-08-20T19:03:14.298Z,20.3
2022-08-20T19:05:18.430Z,20.3
2022-08-20T19:07:22.549Z,20.2
2022-08-20T19:09:26.667Z,20.2
2022-08-20T19:11:34.294Z,20.2
2022-08-20T19:13:37.937Z,20.1
2022-08-20T19:15:42.072Z,20.1
2022-08-20T19:17:46.201Z,20.1
2022-08-20T19:19:50.307Z,20
2022-08-20T19:21:54.448Z,19.9
2022-08-20T19:26:05.723Z,19.9
2022-08-20T19:28:09.919Z,19.8
2022-08-20T19:30:14.000Z,19.7
2022-08-20T19:32:18.142Z,19.7
2022-08-20T19:34:22.624Z,19.7
2022-08-20T19:38:30.509Z,19.5
2022-08-20T19:40:39.186Z,19.4
2022-08-20T19:42:41.792Z,19.3
2022-08-20T19:47:04.342Z,19.1
2022-08-20T19:49:08.491Z,19.1
2022-08-20T19:51:12.602Z,19.1
2022-08-20T19:53:19.757Z,19
2022-08-20T19:55:23.862Z,19
2022-08-20T19:57:29.606Z,18.9
2022-08-20T20:03:40.388Z,18.8
2022-08-20T20:05:44.515Z,18.7
2022-08-20T20:07:51.666Z,18.6
2022-08-20T20:09:55.804Z,18.6
2022-08-20T20:11:59.912Z,18.5
2022-08-20T20:14:04.050Z,18.5
2022-08-20T20:16:08.159Z,18.4
2022-08-20T20:18:12.314Z,18.3
2022-08-20T20:20:16.418Z,18.4
2022-08-20T20:22:23.584Z,18.3
2022-08-20T20:24:27.697Z,18.3
2022-08-20T20:26:31.827Z,18.2
2022-08-20T20:28:35.935Z,18.2
2022-08-20T20:30:40.081Z,18.2
2022-08-20T20:32:44.192Z,18.2
2022-08-20T20:34:54.962Z,18.1
2022-08-20T20:41:03.724Z,18
2022-08-20T20:46:15.551Z,17.9
2022-08-20T20:48:19.688Z,17.8
2022-08-20T20:52:30.918Z,17.8
2022-08-20T20:58:54.369Z,17.6
2022-08-20T21:00:47.435Z,17.6
2022-08-20T21:02:51.531Z,17.5
2022-08-20T21:07:03.007Z,17.5
2022-08-20T21:09:06.928Z,17.4
2022-08-20T21:11:11.038Z,17.4
2022-08-20T21:13:15.154Z,17.3
2022-08-20T21:15:19.274Z,17.3
2022-08-20T21:19:30.532Z,17.2
2022-08-20T21:21:34.693Z,17.2
2022-08-20T21:23:39.643Z,17.2
2022-08-20T21:25:42.918Z,17.1
2022-08-20T21:27:47.029Z,17
2022-08-20T21:29:51.164Z,17
2022-08-20T21:31:55.256Z,17
2022-08-20T21:34:02.401Z,16.9
2022-08-20T21:36:06.525Z,16.9
2022-08-20T21:38:12.217Z,16.8
2022-08-20T21:41:19.870Z,16.8
2022-08-20T21:43:23.988Z,16.8
2022-08-20T21:45:28.335Z,16.8
2022-08-20T21:47:35.211Z,16.8
2022-08-20T21:49:39.607Z,16.8
2022-08-20T21:51:43.444Z,16.8
2022-08-20T21:53:47.572Z,16.7
2022-08-20T21:55:51.673Z,16.7
2022-08-20T21:57:55.787Z,16.6
2022-08-20T21:59:59.909Z,16.6
2022-08-20T22:04:11.147Z,16.5
2022-08-20T22:06:15.241Z,16.4
2022-08-20T22:08:19.362Z,16.5
2022-08-20T22:10:23.474Z,16.4
2022-08-20T22:12:27.595Z,16.4
2022-08-20T22:14:31.719Z,16.4
2022-08-20T22:16:38.834Z,16.4
2022-08-20T22:18:42.933Z,16.3
2022-08-20T22:20:47.031Z,16.3
2022-08-20T22:22:51.147Z,16.3
2022-08-20T22:24:55.256Z,16.3
2022-08-20T22:26:59.347Z,16.2
2022-08-20T22:29:03.449Z,16.2
2022-08-20T22:31:10.621Z,16.1
2022-08-20T22:33:14.729Z,16.1
2022-08-20T22:35:18.860Z,16.1
2022-08-20T22:36:22.413Z,16.1
2022-08-20T22:38:26.509Z,16.1
2022-08-20T22:40:30.638Z,16
2022-08-20T22:48:50.277Z,16.1
2022-08-20T23:07:30.048Z,15.9
2022-08-20T23:09:34.157Z,15.9
2022-08-20T23:13:45.384Z,15.8
2022-08-20T23:15:49.480Z,15.8
2022-08-20T23:17:53.581Z,15.8
2022-08-20T23:19:57.712Z,15.7
2022-08-20T23:22:01.795Z,15.7
2022-08-20T23:24:05.942Z,15.7
2022-08-20T23:26:09.998Z,15.7
2022-08-20T23:28:17.130Z,15.6
2022-08-20T23:30:21.221Z,15.6
2022-08-20T23:32:25.340Z,15.6
2022-08-20T23:34:49.589Z,15.5
2022-08-20T23:36:53.693Z,15.5
2022-08-20T23:41:04.938Z,15.4
2022-08-20T23:43:09.008Z,15.3
2022-08-20T23:45:13.119Z,15.3
2022-08-20T23:47:17.226Z,15.3
2022-08-20T23:49:21.329Z,15.3
2022-08-20T23:51:25.418Z,15.2
2022-08-20T23:53:30.005Z,15.2
2022-08-20T23:55:36.623Z,15.2
2022-08-20T23:57:40.745Z,15.2
